Airfield :
LOGIN :

Register | Disclaimer

   EN    FR    IT 

 










Legend :    VFR   Marginal VFR   IFR   Intensive IFR   Very Intensive IFR
Visi :
Ceiling :
>= 8 km
>= 3000ft
5 to 8 km
1000 to 3000 ft
1500m to 5 km
500 to 1000 ft
800 to 1500m
200 to 500 ft
< 800m
< 200 ft
Symbols :   Thunderstorms  Fog  Heavy snow  Heavy precipitations  Wind > 20 kt
SIGMETs :     Misc.  Thunderstorms  Icing  Turbulence  Mountain Waves  Volcanic Ashes






- Airport Elevation : 1036 ft
- IATA code : ERF


EDDE - Erfurt

CURRENT METAR :
  • 250450Z AUTO 19002KT CAVOK 15/12 Q1018 NOSIG

EXPIRED METARs :
  • 250420Z AUTO 19003KT CAVOK 15/12 Q1018 NOSIG
  • 250350Z AUTO 21003KT CAVOK 13/11 Q1018 NOSIG
  • 250320Z AUTO 21004KT CAVOK 13/11 Q1018
  • 250250Z AUTO 21003KT 190V270 CAVOK 13/11 Q1018
  • 250220Z AUTO VRB02KT CAVOK 14/11 Q1018
  • 250150Z AUTO VRB02KT CAVOK 15/11 Q1018
  • 250120Z AUTO 34002KT CAVOK 16/11 Q1018
  • 250050Z AUTO 34003KT CAVOK 16/12 Q1019
  • 250020Z AUTO 33002KT CAVOK 17/11 Q1019
  • 242350Z AUTO 01002KT CAVOK 17/11 Q1019

TAF TAF EDDE
Valid from the 25 at 00:00 until the 26 at 00:00 UTC


242300Z 2500/2524 VRB03KT CAVOK
BECMG 2506/2509 07009KT
BECMG 2517/2520 06004KT



MET'MAP, your aeronautical weather chart ! - Copyright ORBIFLY December 2007 - Disclaimer

ORBIFLY MET'MAP TEAM :

Programming & Development : Alexandra Zaïnal
Original concept : Baudouin d'Aumeries
Technical & hardware support : Manuel Goepfert
Assistance : Marc-Olivier Méhu




SOURCES & CREDITS :

   NOAA